»·PEaware :: KLM525 KSAN-KPHX

KLM525 :: KSAN-KPHX

FLIGHT INFORMATION

Flight Status: Arrived
Operator:
KLM
More flights by this operator :: More flights under this callsign
Pilot: Kim B. (19519)
Aircraft: BOEING 737-800
(B738)
More flights by this aircraft type
Origin: KSAN San Diego Intl-Lindbergh
United States
Destination: KPHX Phoenix Sky Harbor Intl
United States
More flights between these airports :: More routes between these airports
Route: +ZZOOO2 IPL J18 BZA HOGGZ HYDRR1
File this flight plan on PilotEdge
Remarks: PBN / A1B1C1D1S1S2 DOF / 181015 REG / N806SB EET / KZAB0026 OPR / KLM PER / C RMK / TCAS SIMBRIEF
Altitude:
(Current/Filed)
29,000ft
Speed:
(Current/Filed)
456kts
Departed: 14-Oct-18 07:39 PM
Arrived: 14-Oct-18 08:42 PM
Distance/Time
Traveled:
264nm/1:02
Distance/Time
To Go:
Arrived

Flight Plot

Page will automatically refresh every two minutes.

Flight plan parsing failed; only flown route is shown


Map Options




Map Legend


Flown Route
Filed Route
Departure Airport
Arrival Airport
Navaid (VOR, NDB)
Fix

Horizontal Profiles

Position Reports

Time Latitude Longitude Heading Altitude Ground
Speed
14-Oct-18 18:55 32.733218 -117.196885 134 24ft 0kts
14-Oct-18 18:56 32.733218 -117.196885 134 24ft 0kts
14-Oct-18 18:57 32.733218 -117.196885 134 24ft 0kts
14-Oct-18 18:58 32.733218 -117.196885 134 24ft 0kts
14-Oct-18 18:59 32.733218 -117.196885 134 24ft 0kts
14-Oct-18 19:00 32.733218 -117.196885 134 24ft 0kts
14-Oct-18 19:01 32.733218 -117.196885 134 24ft 0kts
14-Oct-18 19:02 32.733218 -117.196885 134 24ft 0kts
14-Oct-18 19:03 32.733218 -117.196885 134 24ft 0kts
14-Oct-18 19:04 32.733218 -117.196885 134 24ft 0kts
14-Oct-18 19:05 32.733218 -117.196885 134 24ft 0kts
14-Oct-18 19:06 32.733218 -117.196885 134 24ft 0kts
14-Oct-18 19:07 32.733218 -117.196885 134 24ft 0kts
14-Oct-18 19:08 32.733218 -117.196885 134 24ft 0kts
14-Oct-18 19:09 32.733218 -117.196885 134 24ft 0kts
14-Oct-18 19:10 32.733218 -117.196885 134 24ft 0kts
14-Oct-18 19:11 32.733218 -117.196885 134 24ft 0kts
14-Oct-18 19:12 32.733218 -117.196885 134 24ft 0kts
14-Oct-18 19:13 32.733218 -117.196885 134 24ft 0kts
14-Oct-18 19:14 32.733218 -117.196885 134 24ft 0kts
14-Oct-18 19:15 32.733218 -117.196885 134 24ft 0kts
14-Oct-18 19:16 32.733218 -117.196885 134 24ft 0kts
14-Oct-18 19:17 32.733218 -117.196885 134 24ft 0kts
14-Oct-18 19:18 32.733218 -117.196885 134 24ft 0kts
14-Oct-18 19:19 32.733218 -117.196885 134 24ft 0kts
14-Oct-18 19:20 32.733218 -117.196885 134 24ft 0kts
14-Oct-18 19:21 32.733218 -117.196885 134 24ft 0kts
14-Oct-18 19:22 32.733218 -117.196885 134 24ft 0kts
14-Oct-18 19:23 32.733218 -117.196885 134 24ft 0kts
14-Oct-18 19:24 32.733218 -117.196885 134 24ft 0kts
14-Oct-18 19:25 32.733218 -117.196885 134 24ft 0kts
14-Oct-18 19:26 32.733498 -117.196858 189 24ft 2kts
14-Oct-18 19:27 32.733753 -117.196981 62 23ft 1kts
14-Oct-18 19:28 32.733656 -117.197065 20 24ft 0kts
14-Oct-18 19:29 32.733656 -117.197065 20 24ft 0kts
14-Oct-18 19:30 32.733656 -117.197065 20 24ft 0kts
14-Oct-18 19:31 32.733656 -117.197065 21 24ft 0kts
14-Oct-18 19:32 32.733656 -117.197065 21 24ft 0kts
14-Oct-18 19:33 32.733656 -117.197065 21 23ft 0kts
14-Oct-18 19:34 32.734078 -117.196767 58 24ft 4kts
14-Oct-18 19:35 32.732854 -117.191000 106 23ft 33kts
14-Oct-18 19:36 32.730312 -117.180616 106 21ft 27kts
14-Oct-18 19:37 32.729536 -117.176859 70 21ft 0kts
14-Oct-18 19:38 32.729536 -117.176859 70 21ft 0kts
14-Oct-18 19:39 32.729536 -117.176859 70 21ft 0kts
14-Oct-18 19:40 32.730250 -117.176185 291 23ft 2kts
14-Oct-18 19:41 32.739588 -117.216039 286 606ft 218kts
14-Oct-18 19:42 32.709442 -117.250689 180 3554ft 262kts
14-Oct-18 19:43 32.633713 -117.209257 120 7904ft 289kts
14-Oct-18 19:44 32.619612 -117.117678 91 10920ft 319kts
14-Oct-18 19:45 32.610724 -117.013809 93 14255ft 335kts
14-Oct-18 19:46 32.603109 -116.923479 87 16747ft 348kts
14-Oct-18 19:47 32.622098 -116.812529 73 19479ft 361kts
14-Oct-18 19:48 32.640200 -116.673953 80 22322ft 384kts
14-Oct-18 19:49 32.650321 -116.568996 80 23042ft 389kts
14-Oct-18 19:50 32.662414 -116.443373 80 23035ft 390kts
14-Oct-18 19:51 32.676140 -116.299412 81 23008ft 391kts
14-Oct-18 19:52 32.683858 -116.217789 81 22984ft 391kts
14-Oct-18 19:53 32.695767 -116.090676 81 22962ft 392kts
14-Oct-18 19:54 32.707456 -115.964797 81 22962ft 392kts
14-Oct-18 19:55 32.719039 -115.839108 81 22962ft 392kts
14-Oct-18 19:56 32.730488 -115.713454 81 22962ft 392kts
14-Oct-18 19:57 32.741835 -115.587493 81 22959ft 392kts
14-Oct-18 19:58 32.750539 -115.461542 86 22956ft 393kts
14-Oct-18 19:59 32.753194 -115.333876 86 22953ft 393kts
14-Oct-18 20:00 32.756140 -115.204331 86 22960ft 393kts
14-Oct-18 20:01 32.758650 -115.089786 85 22962ft 398kts
14-Oct-18 20:02 32.761425 -114.957711 86 22963ft 406kts
14-Oct-18 20:03 32.764106 -114.822814 86 23784ft 413kts
14-Oct-18 20:04 32.766721 -114.684360 87 25881ft 431kts
14-Oct-18 20:05 32.769131 -114.539987 88 27768ft 447kts
14-Oct-18 20:06 32.771042 -114.392632 87 27105ft 443kts
14-Oct-18 20:07 32.772801 -114.249407 87 25598ft 429kts
14-Oct-18 20:08 32.774108 -114.135218 87 24952ft 423kts
14-Oct-18 20:09 32.783159 -113.991282 80 24948ft 458kts
14-Oct-18 20:10 32.799935 -113.840444 80 24945ft 460kts
14-Oct-18 20:11 32.824784 -113.699078 62 24958ft 428kts
14-Oct-18 20:12 32.892180 -113.586274 44 24975ft 418kts
14-Oct-18 20:13 32.969027 -113.482916 44 24992ft 418kts
14-Oct-18 20:14 33.043490 -113.382351 44 25001ft 421kts
14-Oct-18 20:15 33.108421 -113.294580 45 24644ft 411kts
14-Oct-18 20:16 33.169479 -113.211923 45 22368ft 407kts
14-Oct-18 20:17 33.232715 -113.125927 44 21992ft 358kts
14-Oct-18 20:18 33.275337 -113.005275 84 20434ft 393kts
14-Oct-18 20:19 33.278294 -112.908129 87 18556ft 383kts
14-Oct-18 20:20 33.281858 -112.799340 82 16995ft 336kts
14-Oct-18 20:21 33.291374 -112.703048 83 16960ft 335kts
14-Oct-18 20:22 33.300213 -112.609264 83 15950ft 342kts
14-Oct-18 20:23 33.309006 -112.514933 83 14184ft 342kts
14-Oct-18 20:24 33.317623 -112.422742 83 12550ft 336kts
14-Oct-18 20:25 33.326797 -112.324380 83 11355ft 295kts
14-Oct-18 20:26 33.335226 -112.230861 83 10903ft 296kts
14-Oct-18 20:27 33.343516 -112.139166 83 9998ft 285kts
14-Oct-18 20:28 33.347654 -112.054187 92 8598ft 263kts
14-Oct-18 20:29 33.348046 -111.974993 75 7151ft 241kts
14-Oct-18 20:30 33.350917 -111.896994 93 5721ft 232kts
14-Oct-18 20:31 33.345070 -111.822370 99 6423ft 228kts
14-Oct-18 20:32 33.337434 -111.756079 90 6936ft 230kts
14-Oct-18 20:33 33.339859 -111.686303 86 6514ft 244kts
14-Oct-18 20:34 33.361551 -111.623273 24 4736ft 222kts
14-Oct-18 20:35 33.415361 -111.629026 316 4022ft 218kts
14-Oct-18 20:36 33.427948 -111.687509 271 4008ft 217kts
14-Oct-18 20:37 33.428367 -111.745871 270 4004ft 196kts
14-Oct-18 20:38 33.428519 -111.805416 269 4003ft 195kts
14-Oct-18 20:39 33.428627 -111.848851 269 3624ft 194kts
14-Oct-18 20:40 33.428717 -111.894289 269 2877ft 161kts
14-Oct-18 20:41 33.428771 -111.931247 269 2274ft 141kts
14-Oct-18 20:42 33.428813 -111.967361 269 1703ft 138kts
14-Oct-18 20:43 33.428840 -111.998708 269 1193ft 137kts
14-Oct-18 20:44 33.428837 -112.017977 272 1117ft 36kts
14-Oct-18 20:45 33.429705 -112.021996 305 1117ft 0kts
14-Oct-18 20:46 33.430097 -112.022814 297 1116ft 0kts
14-Oct-18 20:47 33.430144 -112.022928 295 1117ft 0kts
14-Oct-18 20:48 33.430087 -112.023593 255 1116ft 11kts
14-Oct-18 20:49 33.431445 -112.025386 2 1116ft 0kts
14-Oct-18 20:50 33.431608 -112.025377 3 1117ft 4kts
14-Oct-18 20:51 33.432881 -112.023201 90 1116ft 11kts
14-Oct-18 20:52 33.432877 -112.019267 89 1117ft 18kts
14-Oct-18 20:53 33.434364 -112.015275 19 1117ft 14kts
14-Oct-18 20:54 33.435155 -112.014218 127 1116ft 0kts
14-Oct-18 20:55 33.435155 -112.014218 127 1116ft 0kts
14-Oct-18 20:56 33.435155 -112.014218 127 1116ft 0kts
14-Oct-18 20:57 33.435155 -112.014218 127 1116ft 0kts
14-Oct-18 20:58 33.435155 -112.014218 127 1116ft 0kts

Navigation Log

Ident Type
Flight plan parsing failed, navigation log unavailable